Time;durP1;ratioP1;P1;durP2;ratioP2;P2;SDS_P1;SDS_P2;PMS_P1;PMS_P2;Temp;Humidity;BMP_temperature;BMP_pressure;BME280_temperature;BME280_humidity;BME280_pressure;Samples;Min_cycle;Max_cycle;Signal;HPM_P1;HPM_P2
2022/10/03 00:01:23;;;;;;;0.60;0.60;;;10.80;99.90;;;;;;4959762;28;20135;-77
2022/10/03 00:04:19;;;;;;;0.60;0.60;;;10.80;99.90;;;;;;4901526;28;20081;-80
2022/10/03 00:07:04;;;;;;;0.60;0.60;;;10.80;99.90;;;;;;4949138;28;20089;-80
2022/10/03 00:09:33;;;;;;;0.60;0.60;;;10.70;99.90;;;;;;4967908;28;20048;-80
2022/10/03 00:12:14;;;;;;;0.60;0.60;;;10.80;99.90;;;;;;4971048;28;20498;-79
2022/10/03 00:14:49;;;;;;;0.50;0.50;;;10.70;99.90;;;;;;4961364;28;21008;-80
2022/10/03 00:18:11;;;;;;;0.50;0.50;;;10.70;99.90;;;;;;4974164;28;20134;-79
2022/10/03 00:21:04;;;;;;;0.60;0.60;;;10.70;99.90;;;;;;4923319;28;20048;-79
2022/10/03 00:23:53;;;;;;;0.50;0.50;;;10.80;99.90;;;;;;4968049;28;20041;-79
2022/10/03 00:26:29;;;;;;;0.60;0.60;;;10.70;99.90;;;;;;4969578;28;20056;-79
2022/10/03 00:29:32;;;;;;;0.60;0.60;;;10.70;99.90;;;;;;4954795;28;20045;-79
2022/10/03 00:32:07;;;;;;;0.50;0.50;;;10.80;99.90;;;;;;4966234;28;20533;-79
2022/10/03 00:34:56;;;;;;;0.50;0.50;;;10.70;99.90;;;;;;4958065;28;20048;-80
2022/10/03 00:37:43;;;;;;;0.55;0.55;;;10.70;99.90;;;;;;4961669;28;20041;-79
2022/10/03 00:40:31;;;;;;;0.60;0.60;;;10.70;99.90;;;;;;4966521;28;20041;-78
2022/10/03 00:43:21;;;;;;;0.60;0.60;;;10.80;99.90;;;;;;4961661;28;20562;-79
2022/10/03 00:46:27;;;;;;;0.50;0.50;;;10.70;99.90;;;;;;4966469;28;20460;-79
2022/10/03 00:49:31;;;;;;;0.50;0.50;;;10.70;99.90;;;;;;4971825;28;20056;-79
2022/10/03 00:52:17;;;;;;;0.55;0.55;;;10.60;99.90;;;;;;4962037;28;20063;-81
2022/10/03 00:55:22;;;;;;;0.60;0.60;;;10.60;99.90;;;;;;4975390;28;20087;-80
2022/10/03 00:58:06;;;;;;;0.55;0.55;;;10.70;99.90;;;;;;4938706;28;20069;-81
2022/10/03 01:00:34;;;;;;;0.60;0.60;;;10.60;99.90;;;;;;4969275;28;20795;-79
2022/10/03 01:03:32;;;;;;;0.60;0.60;;;10.70;99.90;;;;;;4958291;28;20069;-80
2022/10/03 01:06:19;;;;;;;0.50;0.50;;;10.70;99.90;;;;;;4936805;28;20106;-80
2022/10/03 01:09:17;;;;;;;0.50;0.50;;;10.60;99.90;;;;;;4970055;28;20387;-80
2022/10/03 01:12:09;;;;;;;0.50;0.50;;;10.60;99.90;;;;;;4927227;28;20572;-79
2022/10/03 01:15:09;;;;;;;0.60;0.60;;;10.60;99.90;;;;;;4951298;28;20092;-79
2022/10/03 01:18:07;;;;;;;0.60;0.60;;;10.60;99.90;;;;;;4966909;28;20041;-79
2022/10/03 01:20:40;;;;;;;0.50;0.50;;;10.60;99.90;;;;;;4963458;28;20049;-79
2022/10/03 01:23:37;;;;;;;0.60;0.60;;;10.60;99.90;;;;;;4972737;28;20075;-80
2022/10/03 01:26:26;;;;;;;0.52;0.52;;;10.60;99.90;;;;;;4968434;28;20053;-79
2022/10/03 01:32:07;;;;;;;0.50;0.50;;;10.50;99.90;;;;;;4965012;28;20220;-80
2022/10/03 01:34:59;;;;;;;0.50;0.50;;;10.40;99.90;;;;;;4957699;28;20056;-80
2022/10/03 01:38:08;;;;;;;0.50;0.50;;;10.40;99.90;;;;;;4966762;28;20041;-79
2022/10/03 01:40:50;;;;;;;0.50;0.50;;;10.40;99.90;;;;;;4956057;28;20052;-79
2022/10/03 01:43:32;;;;;;;0.50;0.50;;;10.10;99.90;;;;;;4988587;28;20439;-80
2022/10/03 01:46:05;;;;;;;0.50;0.50;;;10.20;99.90;;;;;;4942450;28;20506;-79
2022/10/03 01:48:42;;;;;;;0.50;0.50;;;10.20;99.90;;;;;;4966573;28;20086;-79
2022/10/03 01:51:23;;;;;;;0.60;0.60;;;10.10;99.90;;;;;;4956438;28;20592;-80
2022/10/03 01:54:01;;;;;;;0.50;0.50;;;10.00;99.90;;;;;;4952092;28;20943;-79
2022/10/03 01:56:33;;;;;;;0.50;0.50;;;10.00;99.90;;;;;;4960348;28;20057;-79
2022/10/03 01:59:19;;;;;;;0.50;0.50;;;10.00;99.90;;;;;;4956806;28;20256;-80
2022/10/03 02:02:00;;;;;;;0.60;0.60;;;10.00;99.90;;;;;;4961361;28;20427;-80
2022/10/03 02:04:37;;;;;;;0.50;0.50;;;10.00;99.90;;;;;;4967320;28;20044;-79
2022/10/03 02:07:35;;;;;;;0.60;0.60;;;10.00;99.90;;;;;;4976516;28;20053;-80
2022/10/03 02:10:23;;;;;;;0.60;0.60;;;10.00;99.90;;;;;;4971525;28;20053;-80
2022/10/03 02:12:59;;;;;;;0.50;0.50;;;10.10;99.90;;;;;;4974060;28;20544;-80
2022/10/03 02:15:53;;;;;;;0.50;0.50;;;10.10;99.90;;;;;;4976912;28;20140;-80
2022/10/03 02:18:45;;;;;;;0.60;0.60;;;10.10;99.90;;;;;;4973242;28;20210;-80
2022/10/03 02:21:29;;;;;;;0.60;0.60;;;10.20;99.90;;;;;;4976359;28;20426;-80
2022/10/03 02:24:18;;;;;;;0.60;0.60;;;10.10;99.90;;;;;;4964801;28;20340;-80
2022/10/03 02:27:12;;;;;;;0.50;0.50;;;10.10;99.90;;;;;;4954476;28;20056;-80
2022/10/03 02:29:56;;;;;;;0.57;0.57;;;10.20;99.90;;;;;;4956456;28;20087;-80
2022/10/03 02:32:44;;;;;;;0.60;0.60;;;10.20;99.90;;;;;;4965435;28;20156;-80
2022/10/03 02:35:44;;;;;;;0.60;0.60;;;10.20;99.90;;;;;;4962766;28;20470;-80
2022/10/03 02:38:48;;;;;;;0.60;0.60;;;10.20;99.90;;;;;;4980192;28;20044;-80
2022/10/03 02:41:31;;;;;;;0.60;0.60;;;10.20;99.90;;;;;;4972570;28;20548;-80
2022/10/03 02:44:28;;;;;;;0.60;0.60;;;10.20;99.90;;;;;;4966013;28;20079;-80
2022/10/03 02:46:58;;;;;;;0.60;0.60;;;10.30;99.90;;;;;;4967569;28;20064;-80
2022/10/03 02:49:32;;;;;;;0.57;0.57;;;10.20;99.90;;;;;;4969144;28;20143;-80
2022/10/03 02:52:29;;;;;;;0.60;0.60;;;10.30;99.90;;;;;;4960469;28;20052;-80
2022/10/03 02:55:10;;;;;;;0.60;0.60;;;10.20;99.90;;;;;;4973760;28;20189;-80
2022/10/03 02:57:56;;;;;;;0.50;0.50;;;10.20;99.90;;;;;;4969361;28;20083;-80
2022/10/03 03:00:37;;;;;;;0.60;0.60;;;10.10;99.90;;;;;;4970726;28;20052;-80
2022/10/03 03:03:12;;;;;;;0.60;0.60;;;10.20;99.90;;;;;;4966649;28;20482;-80
2022/10/03 03:06:16;;;;;;;0.50;0.50;;;10.20;99.90;;;;;;4958681;28;20598;-80
2022/10/03 03:09:03;;;;;;;0.60;0.60;;;10.20;99.90;;;;;;4973671;28;20684;-80
2022/10/03 03:11:29;;;;;;;0.60;0.60;;;10.20;99.90;;;;;;4968823;28;20494;-80
2022/10/03 03:14:23;;;;;;;0.60;0.60;;;10.20;99.90;;;;;;4965233;28;20229;-80
2022/10/03 03:17:11;;;;;;;0.60;0.60;;;10.20;99.90;;;;;;4966203;28;20049;-80
2022/10/03 03:20:09;;;;;;;0.60;0.60;;;10.10;99.90;;;;;;4948341;28;20609;-80
2022/10/03 03:23:00;;;;;;;0.60;0.60;;;10.10;99.90;;;;;;4961213;28;20496;-80
2022/10/03 03:25:56;;;;;;;0.60;0.60;;;10.20;99.90;;;;;;4965417;28;20560;-80
2022/10/03 03:28:30;;;;;;;0.60;0.60;;;10.10;99.90;;;;;;4963945;28;20762;-80
2022/10/03 03:31:13;;;;;;;0.60;0.60;;;10.10;99.90;;;;;;4963466;28;20557;-80
2022/10/03 03:34:01;;;;;;;0.60;0.60;;;10.10;99.90;;;;;;4962829;28;20048;-80
2022/10/03 03:36:51;;;;;;;0.60;0.60;;;10.20;99.90;;;;;;4965356;28;20056;-80
2022/10/03 03:39:48;;;;;;;0.60;0.60;;;10.20;99.90;;;;;;4962908;28;20394;-81
2022/10/03 03:42:33;;;;;;;0.60;0.60;;;10.20;99.90;;;;;;4964190;28;20858;-80
2022/10/03 03:45:18;;;;;;;0.60;0.60;;;10.10;99.90;;;;;;4967134;28;20493;-80
2022/10/03 03:48:05;;;;;;;0.60;0.60;;;10.10;99.90;;;;;;4968402;28;20055;-81
2022/10/03 03:50:44;;;;;;;0.60;0.60;;;10.00;99.90;;;;;;4963056;28;20501;-80
2022/10/03 03:53:19;;;;;;;0.60;0.60;;;10.00;99.90;;;;;;4970933;28;20052;-81
2022/10/03 03:56:07;;;;;;;0.60;0.60;;;10.10;99.90;;;;;;4962632;28;20045;-81
2022/10/03 03:58:44;;;;;;;0.60;0.60;;;10.10;99.90;;;;;;4964430;28;20037;-81
2022/10/03 04:01:52;;;;;;;0.50;0.50;;;10.10;99.90;;;;;;4962459;28;20044;-80
2022/10/03 04:04:50;;;;;;;0.50;0.50;;;9.90;99.90;;;;;;4950468;28;20476;-81
2022/10/03 04:07:24;;;;;;;0.60;0.60;;;9.90;99.90;;;;;;4964415;28;20449;-80
2022/10/03 04:10:02;;;;;;;;;;;9.80;99.90;;;;;;4959950;28;20102;-81
2022/10/03 04:13:04;;;;;;;0.50;0.50;;;9.70;99.90;;;;;;4961285;28;20277;-81
2022/10/03 04:15:54;;;;;;;0.60;0.60;;;9.80;99.90;;;;;;4957457;28;20048;-81
2022/10/03 04:21:26;;;;;;;0.60;0.60;;;9.90;99.90;;;;;;4961498;28;20106;-81
2022/10/03 04:24:12;;;;;;;0.60;0.60;;;10.00;99.90;;;;;;4941682;28;20717;-81
2022/10/03 04:27:00;;;;;;;0.50;0.50;;;10.00;99.90;;;;;;4950077;28;20553;-81
2022/10/03 04:29:41;;;;;;;0.60;0.60;;;10.00;99.90;;;;;;4961345;28;20393;-81
2022/10/03 04:32:33;;;;;;;0.50;0.50;;;9.90;99.90;;;;;;4965712;28;20202;-81
2022/10/03 04:35:20;;;;;;;0.60;0.60;;;9.90;99.90;;;;;;4981171;28;20529;-81
2022/10/03 04:38:04;;;;;;;0.50;0.50;;;10.00;99.90;;;;;;4963607;28;20057;-82
2022/10/03 04:40:48;;;;;;;0.60;0.60;;;9.80;99.90;;;;;;4958801;28;20072;-81
2022/10/03 04:43:33;;;;;;;0.60;0.60;;;9.80;99.90;;;;;;4964323;28;20045;-82
2022/10/03 04:46:31;;;;;;;0.60;0.60;;;9.60;99.90;;;;;;4966838;28;20513;-82
2022/10/03 04:49:02;;;;;;;0.60;0.60;;;9.50;99.90;;;;;;4974239;28;20059;-81
2022/10/03 04:51:40;;;;;;;0.60;0.60;;;9.40;99.90;;;;;;4964712;28;20122;-81
2022/10/03 04:54:15;;;;;;;0.60;0.60;;;9.50;99.90;;;;;;4961265;28;20138;-81
2022/10/03 04:57:08;;;;;;;0.60;0.60;;;9.40;99.90;;;;;;4969917;28;20043;-82
2022/10/03 04:59:47;;;;;;;0.57;0.57;;;9.30;99.90;;;;;;4972833;28;20191;-82
2022/10/03 05:02:32;;;;;;;0.60;0.60;;;9.40;99.90;;;;;;4962526;28;20053;-81
2022/10/03 05:05:16;;;;;;;0.50;0.50;;;9.50;99.90;;;;;;4973840;28;20599;-82
2022/10/03 05:07:45;;;;;;;0.50;0.50;;;9.30;99.90;;;;;;4976587;28;20098;-82
2022/10/03 05:10:42;;;;;;;0.60;0.60;;;9.20;99.90;;;;;;4971027;28;20102;-81
2022/10/03 05:13:41;;;;;;;0.60;0.60;;;9.10;99.90;;;;;;4973846;28;20817;-83
2022/10/03 05:16:35;;;;;;;0.60;0.60;;;9.00;99.90;;;;;;4955685;28;20045;-81
2022/10/03 05:19:46;;;;;;;0.60;0.60;;;9.10;99.90;;;;;;4987851;28;20063;-82
2022/10/03 05:22:26;;;;;;;0.60;0.60;;;9.00;99.90;;;;;;4966916;28;20122;-82
2022/10/03 05:25:20;;;;;;;0.60;0.60;;;9.10;99.90;;;;;;4979383;28;20048;-82
2022/10/03 05:28:00;;;;;;;0.60;0.60;;;9.10;99.90;;;;;;4975375;28;20064;-82
2022/10/03 05:30:41;;;;;;;0.50;0.50;;;9.20;99.90;;;;;;4972185;28;20980;-82
2022/10/03 05:33:43;;;;;;;0.60;0.60;;;9.10;99.90;;;;;;4978098;28;20048;-83
2022/10/03 05:36:26;;;;;;;0.60;0.60;;;9.20;99.90;;;;;;4949828;28;20056;-82
2022/10/03 05:39:22;;;;;;;0.50;0.50;;;9.30;99.90;;;;;;4976297;28;20055;-82
2022/10/03 05:42:05;;;;;;;0.60;0.60;;;9.30;99.90;;;;;;4972076;28;20300;-82
2022/10/03 05:44:45;;;;;;;0.60;0.60;;;9.20;99.90;;;;;;4969815;28;20596;-82
2022/10/03 05:47:45;;;;;;;0.60;0.60;;;9.20;99.90;;;;;;4964884;28;20400;-82
2022/10/03 05:50:35;;;;;;;0.60;0.60;;;9.30;99.90;;;;;;4958800;28;20071;-82
2022/10/03 05:53:00;;;;;;;0.60;0.60;;;9.30;99.90;;;;;;4965276;28;20080;-82
2022/10/03 05:55:49;;;;;;;0.50;0.50;;;9.40;99.90;;;;;;4967600;28;20036;-82
2022/10/03 05:58:30;;;;;;;0.60;0.60;;;9.40;99.90;;;;;;4983778;28;20809;-81
2022/10/03 06:01:18;;;;;;;0.60;0.60;;;9.40;99.90;;;;;;4975903;28;20373;-81
2022/10/03 06:04:06;;;;;;;0.60;0.60;;;9.40;99.90;;;;;;4976694;28;21902;-81
2022/10/03 06:07:00;;;;;;;0.60;0.60;;;9.50;99.90;;;;;;4970936;28;20074;-81
2022/10/03 06:10:06;;;;;;;0.60;0.60;;;9.50;99.90;;;;;;4967542;28;20125;-82
2022/10/03 06:12:54;;;;;;;0.50;0.50;;;9.50;99.90;;;;;;4968626;28;20048;-82
2022/10/03 06:15:53;;;;;;;0.60;0.60;;;9.50;99.90;;;;;;4949478;28;20518;-83
2022/10/03 06:18:47;;;;;;;0.60;0.60;;;9.50;99.90;;;;;;4967742;28;20087;-82
2022/10/03 06:21:25;;;;;;;0.60;0.60;;;9.70;99.90;;;;;;4966029;28;20048;-82
2022/10/03 06:24:12;;;;;;;0.60;0.60;;;9.70;99.90;;;;;;4968923;28;20088;-82
2022/10/03 06:26:49;;;;;;;0.60;0.60;;;9.90;99.90;;;;;;4964932;28;20447;-82
2022/10/03 06:29:53;;;;;;;0.60;0.60;;;10.00;99.90;;;;;;4961484;28;20118;-82
2022/10/03 06:32:25;;;;;;;0.60;0.60;;;10.10;99.90;;;;;;4954402;28;20048;-82
2022/10/03 06:35:32;;;;;;;0.60;0.60;;;10.20;99.90;;;;;;4962068;28;20684;-82
2022/10/03 06:38:09;;;;;;;0.60;0.60;;;10.40;99.90;;;;;;4926066;28;20476;-83
2022/10/03 06:41:04;;;;;;;0.60;0.60;;;10.50;99.90;;;;;;4965231;28;21051;-82
2022/10/03 06:43:48;;;;;;;0.60;0.60;;;10.60;99.90;;;;;;4966202;28;20044;-84
2022/10/03 06:46:58;;;;;;;0.60;0.60;;;10.80;99.90;;;;;;4967172;28;20049;-82
2022/10/03 06:49:48;;;;;;;0.60;0.60;;;10.90;99.90;;;;;;4972911;28;20299;-81
2022/10/03 06:52:52;;;;;;;0.50;0.50;;;11.10;99.90;;;;;;4968403;28;20208;-82
2022/10/03 06:55:52;;;;;;;0.60;0.60;;;11.20;99.90;;;;;;4959427;28;20398;-83
2022/10/03 06:58:42;;;;;;;0.60;0.60;;;11.30;99.90;;;;;;4949113;28;20760;-82
2022/10/03 07:01:11;;;;;;;0.50;0.50;;;11.50;99.90;;;;;;4947060;28;20071;-83
2022/10/03 07:04:04;;;;;;;0.60;0.60;;;11.70;99.90;;;;;;4964084;28;20495;-82
2022/10/03 07:07:04;;;;;;;0.50;0.50;;;11.80;99.90;;;;;;4966890;28;20152;-82
2022/10/03 07:10:04;;;;;;;0.60;0.60;;;11.90;99.90;;;;;;4964708;28;20554;-82
2022/10/03 07:13:09;;;;;;;0.60;0.60;;;12.00;99.90;;;;;;4953447;28;20068;-83
2022/10/03 07:16:07;;;;;;;0.50;0.50;;;12.00;99.90;;;;;;4960478;28;20064;-80
2022/10/03 07:18:36;;;;;;;0.60;0.60;;;12.20;99.90;;;;;;4964537;28;20561;-81
2022/10/03 07:22:00;;;;;;;0.50;0.50;;;12.40;99.90;;;;;;4964696;28;20057;-81
2022/10/03 07:25:04;;;;;;;0.50;0.50;;;12.50;99.90;;;;;;4963331;28;20875;-81
2022/10/03 07:27:50;;;;;;;0.50;0.50;;;12.70;99.90;;;;;;4965682;28;20048;-83
2022/10/03 07:30:54;;;;;;;0.60;0.60;;;12.80;99.90;;;;;;4971657;28;20049;-82
2022/10/03 07:33:38;;;;;;;0.60;0.60;;;13.00;99.90;;;;;;4972818;28;20129;-83
2022/10/03 07:39:32;;;;;;;0.60;0.60;;;13.20;99.90;;;;;;4968583;28;20594;-82
2022/10/03 07:42:30;;;;;;;0.60;0.60;;;13.40;99.90;;;;;;4962112;28;20545;-82
2022/10/03 07:45:24;;;;;;;0.60;0.60;;;13.40;99.90;;;;;;4971965;28;20048;-82
2022/10/03 07:48:03;;;;;;;0.50;0.50;;;13.70;99.90;;;;;;4966857;28;20461;-82
2022/10/03 07:50:51;;;;;;;0.50;0.50;;;13.80;99.90;;;;;;4961194;28;20106;-80
2022/10/03 07:54:12;;;;;;;0.50;0.50;;;13.90;99.90;;;;;;4963950;28;20533;-82
2022/10/03 07:57:31;;;;;;;0.50;0.50;;;14.10;99.90;;;;;;4907429;28;20827;-81
2022/10/03 08:00:24;;;;;;;0.50;0.50;;;14.20;99.90;;;;;;4848973;29;20589;-81
2022/10/03 08:03:01;;;;;;;0.50;0.50;;;14.40;99.90;;;;;;4922175;28;20582;-82
2022/10/03 08:06:06;;;;;;;0.50;0.50;;;14.50;99.90;;;;;;4943047;28;20523;-81
2022/10/03 08:09:10;;;;;;;0.50;0.50;;;14.70;99.90;;;;;;4966212;28;20048;-80
2022/10/03 08:11:48;;;;;;;0.50;0.50;;;14.70;99.90;;;;;;4960689;28;20444;-82
2022/10/03 08:14:44;;;;;;;0.50;0.50;;;14.70;99.90;;;;;;4972898;28;20045;-83
2022/10/03 08:17:20;;;;;;;0.50;0.50;;;14.90;99.90;;;;;;4960896;28;20052;-81
2022/10/03 08:19:55;;;;;;;0.50;0.50;;;15.10;99.90;;;;;;4944346;28;20369;-82
2022/10/03 08:23:03;;;;;;;0.40;0.40;;;15.20;99.90;;;;;;4965041;28;20867;-81
2022/10/03 08:25:43;;;;;;;0.50;0.50;;;15.30;99.90;;;;;;4934963;28;20063;-81
2022/10/03 08:28:28;;;;;;;0.50;0.50;;;15.40;99.90;;;;;;4968545;28;20049;-81
2022/10/03 08:31:01;;;;;;;0.40;0.40;;;15.60;99.90;;;;;;4953916;28;20336;-82
2022/10/03 08:33:30;;;;;;;0.50;0.50;;;15.70;99.90;;;;;;4961556;28;20087;-82
2022/10/03 08:36:31;;;;;;;0.50;0.50;;;15.80;99.90;;;;;;4961788;28;20057;-80
2022/10/03 08:39:12;;;;;;;0.50;0.50;;;15.80;99.90;;;;;;4964794;28;20395;-80
2022/10/03 08:41:59;;;;;;;0.50;0.50;;;15.90;99.90;;;;;;4954475;28;20052;-79
2022/10/03 08:44:58;;;;;;;0.50;0.50;;;16.00;99.90;;;;;;4955770;28;20376;-81
2022/10/03 08:48:01;;;;;;;0.40;0.40;;;16.10;99.90;;;;;;4960258;28;20120;-80
2022/10/03 08:50:34;;;;;;;0.40;0.40;;;16.20;99.90;;;;;;4961866;28;20410;-79
2022/10/03 08:53:12;;;;;;;0.40;0.40;;;16.40;99.90;;;;;;4961892;28;20106;-80
2022/10/03 08:55:56;;;;;;;0.40;0.40;;;16.60;99.90;;;;;;4959186;28;20419;-81
2022/10/03 08:58:44;;;;;;;0.50;0.50;;;16.60;99.90;;;;;;4965388;28;20559;-81
2022/10/03 09:01:28;;;;;;;0.47;0.47;;;16.70;99.90;;;;;;4964703;28;20052;-81
2022/10/03 09:04:31;;;;;;;0.50;0.50;;;16.70;99.90;;;;;;4958721;28;20057;-81
2022/10/03 09:07:27;;;;;;;0.40;0.40;;;16.80;99.90;;;;;;4958782;28;20045;-80
2022/10/03 09:10:37;;;;;;;0.50;0.50;;;16.90;99.90;;;;;;4961460;28;20740;-79
2022/10/03 09:13:19;;;;;;;0.40;0.40;;;17.00;99.90;;;;;;4960804;28;20586;-80
2022/10/03 09:16:22;;;;;;;0.40;0.40;;;16.90;99.90;;;;;;4959135;28;20416;-80
2022/10/03 09:19:10;;;;;;;0.50;0.50;;;17.10;99.90;;;;;;4953633;28;20087;-80
2022/10/03 09:22:08;;;;;;;0.50;0.50;;;17.30;99.90;;;;;;4960706;28;20121;-79
2022/10/03 09:25:04;;;;;;;0.40;0.40;;;17.50;99.90;;;;;;4961945;28;20052;-79
2022/10/03 09:27:49;;;;;;;0.40;0.40;;;17.70;99.90;;;;;;4978163;28;20123;-80
2022/10/03 09:30:39;;;;;;;0.50;0.50;;;17.60;99.90;;;;;;4966058;28;20429;-79
2022/10/03 09:33:10;;;;;;;0.40;0.40;;;17.80;99.90;;;;;;4966446;28;20147;-80
2022/10/03 09:35:53;;;;;;;0.47;0.47;;;18.00;99.90;;;;;;4944378;28;20049;-80
2022/10/03 09:38:56;;;;;;;0.50;0.50;;;17.80;99.90;;;;;;4963276;28;20495;-77
2022/10/03 09:41:41;;;;;;;0.40;0.40;;;17.90;99.90;;;;;;4971407;28;20494;-78
2022/10/03 09:44:49;;;;;;;0.50;0.50;;;17.80;99.90;;;;;;4961385;28;20470;-79
2022/10/03 09:47:37;;;;;;;0.50;0.50;;;17.90;99.90;;;;;;4961959;28;20958;-80
2022/10/03 09:50:26;;;;;;;0.40;0.40;;;18.20;99.90;;;;;;4962596;28;20076;-80
2022/10/03 09:53:31;;;;;;;0.50;0.50;;;18.10;99.90;;;;;;4966396;28;20055;-80
2022/10/03 09:56:33;;;;;;;0.50;0.50;;;18.20;99.90;;;;;;4940860;28;20059;-80
2022/10/03 09:59:17;;;;;;;0.40;0.40;;;18.10;99.90;;;;;;4963770;28;20156;-80
2022/10/03 10:02:02;;;;;;;;;;;18.20;99.90;;;;;;4975446;28;20052;-81
2022/10/03 10:04:55;;;;;;;0.50;0.50;;;18.20;99.90;;;;;;4958498;28;20377;-80
2022/10/03 10:07:33;;;;;;;0.40;0.40;;;18.40;99.90;;;;;;4962897;28;20525;-80
2022/10/03 10:10:18;;;;;;;0.50;0.50;;;18.10;99.90;;;;;;4967337;28;20554;-80
2022/10/03 10:13:20;;;;;;;0.40;0.40;;;18.00;99.90;;;;;;4971093;28;20052;-79
2022/10/03 10:16:17;;;;;;;0.50;0.50;;;18.00;99.90;;;;;;4968482;28;20512;-80
2022/10/03 10:19:14;;;;;;;0.45;0.45;;;18.00;99.90;;;;;;4964417;28;20245;-79
2022/10/03 10:22:11;;;;;;;0.40;0.40;;;18.10;99.90;;;;;;4958839;28;20044;-80
2022/10/03 10:25:02;;;;;;;0.40;0.40;;;18.00;99.90;;;;;;4963394;28;20075;-79
2022/10/03 10:28:05;;;;;;;0.40;0.40;;;17.60;99.90;;;;;;4959666;28;20518;-80
2022/10/03 10:30:48;;;;;;;0.40;0.40;;;18.20;99.90;;;;;;4962915;28;20624;-78
2022/10/03 10:33:38;;;;;;;0.40;0.40;;;18.40;99.90;;;;;;4968001;28;20874;-80
2022/10/03 10:36:25;;;;;;;0.45;0.45;;;18.40;99.90;;;;;;4972039;28;20750;-80
2022/10/03 10:39:38;;;;;;;0.40;0.40;;;18.40;99.90;;;;;;4962361;28;20931;-80
2022/10/03 10:42:25;;;;;;;0.40;0.40;;;18.10;99.90;;;;;;4963735;28;20052;-80
2022/10/03 10:45:13;;;;;;;0.40;0.40;;;18.00;99.90;;;;;;4961885;28;20550;-80
2022/10/03 10:47:39;;;;;;;0.40;0.40;;;18.10;99.90;;;;;;4945516;28;21274;-80
2022/10/03 10:50:29;;;;;;;0.47;0.47;;;18.00;99.90;;;;;;4956214;28;20102;-80
2022/10/03 10:53:36;;;;;;;0.43;0.43;;;18.40;99.90;;;;;;4964860;28;20045;-79
2022/10/03 10:56:26;;;;;;;0.50;0.50;;;18.60;99.90;;;;;;4969563;28;20806;-80
2022/10/03 10:59:29;;;;;;;0.40;0.40;;;18.50;99.90;;;;;;4963089;28;20064;-80
2022/10/03 11:02:17;;;;;;;0.50;0.50;;;18.50;99.90;;;;;;4951355;28;20519;-80
2022/10/03 11:05:21;;;;;;;0.50;0.50;;;18.60;99.90;;;;;;4964460;28;20608;-80
2022/10/03 11:08:26;;;;;;;0.40;0.40;;;18.80;99.90;;;;;;4960741;28;20045;-79
2022/10/03 11:11:10;;;;;;;0.40;0.40;;;18.70;99.90;;;;;;4964383;28;20117;-80
2022/10/03 11:14:10;;;;;;;0.50;0.50;;;18.60;99.90;;;;;;4964461;28;20044;-80
2022/10/03 11:16:57;;;;;;;0.43;0.43;;;18.50;99.90;;;;;;4961679;28;20456;-79
2022/10/03 11:19:42;;;;;;;0.50;0.50;;;18.40;99.90;;;;;;4975556;28;20048;-80
2022/10/03 11:22:32;;;;;;;0.40;0.40;;;18.70;99.90;;;;;;4973620;28;21077;-79
2022/10/03 11:25:17;;;;;;;0.40;0.40;;;19.10;99.90;;;;;;4961238;28;20056;-80
2022/10/03 11:28:17;;;;;;;0.40;0.40;;;19.10;99.90;;;;;;4957975;28;20484;-80
2022/10/03 11:30:55;;;;;;;0.50;0.50;;;19.30;99.90;;;;;;4958066;28;20245;-80
2022/10/03 11:33:53;;;;;;;0.40;0.40;;;19.20;99.90;;;;;;4964775;28;20053;-80
2022/10/03 11:36:53;;;;;;;0.40;0.40;;;19.30;99.90;;;;;;4962370;28;20132;-80
2022/10/03 11:39:41;;;;;;;0.50;0.50;;;19.30;99.90;;;;;;4964554;28;20049;-82
2022/10/03 11:42:34;;;;;;;0.40;0.40;;;19.20;99.90;;;;;;4963095;28;20402;-79
2022/10/03 11:45:25;;;;;;;0.50;0.50;;;19.00;99.90;;;;;;4957130;28;20052;-82
2022/10/03 11:48:11;;;;;;;0.50;0.50;;;19.00;99.90;;;;;;4948069;28;20422;-80
2022/10/03 11:51:17;;;;;;;0.40;0.40;;;19.10;99.90;;;;;;4957468;28;20270;-80
2022/10/03 11:54:07;;;;;;;0.40;0.40;;;19.80;99.90;;;;;;4960069;28;20095;-79
2022/10/03 11:57:01;;;;;;;0.40;0.40;;;20.20;99.90;;;;;;4964755;28;20920;-79
2022/10/03 11:59:37;;;;;;;;;;;19.90;99.90;;;;;;4957299;28;20754;-80
2022/10/03 12:02:34;;;;;;;0.40;0.40;;;19.90;99.90;;;;;;4959038;28;19935;-80
2022/10/03 12:05:33;;;;;;;0.40;0.40;;;19.90;99.90;;;;;;4965211;28;20253;-81
2022/10/03 12:11:05;;;;;;;0.40;0.40;;;19.40;99.90;;;;;;4958068;28;20056;-80
2022/10/03 12:13:38;;;;;;;0.40;0.40;;;19.30;99.90;;;;;;4960827;28;20044;-80
2022/10/03 12:16:29;;;;;;;0.40;0.40;;;19.00;99.90;;;;;;4959622;28;20060;-80
2022/10/03 12:19:29;;;;;;;0.40;0.40;;;18.80;99.90;;;;;;4960801;28;20583;-80
2022/10/03 12:22:16;;;;;;;0.40;0.40;;;18.50;99.90;;;;;;4966491;28;20040;-80
2022/10/03 12:24:44;;;;;;;0.40;0.40;;;18.70;99.90;;;;;;4964295;28;20044;-80
2022/10/03 12:27:21;;;;;;;0.50;0.50;;;18.90;99.90;;;;;;4959362;28;20094;-81
2022/10/03 12:29:57;;;;;;;0.40;0.40;;;18.50;99.90;;;;;;4960591;28;20118;-80
2022/10/03 12:32:45;;;;;;;0.40;0.40;;;18.50;99.90;;;;;;4956790;28;20075;-80
2022/10/03 12:35:55;;;;;;;0.50;0.50;;;18.40;99.90;;;;;;4961060;28;20133;-80
2022/10/03 12:38:46;;;;;;;0.50;0.50;;;18.30;99.90;;;;;;4909218;28;20056;-79
2022/10/03 12:41:18;;;;;;;0.40;0.40;;;18.60;99.90;;;;;;4962833;28;20048;-80
2022/10/03 12:43:56;;;;;;;0.40;0.40;;;18.40;99.90;;;;;;4956467;28;20094;-79
2022/10/03 12:46:56;;;;;;;0.40;0.40;;;18.60;99.90;;;;;;4965282;28;20515;-79
2022/10/03 12:49:42;;;;;;;0.40;0.40;;;18.60;99.90;;;;;;4948728;28;20428;-80
2022/10/03 12:52:31;;;;;;;0.40;0.40;;;18.60;99.90;;;;;;4963271;28;20099;-80
2022/10/03 12:55:35;;;;;;;0.50;0.50;;;18.80;99.90;;;;;;4961122;28;20453;-80
2022/10/03 12:58:28;;;;;;;0.40;0.40;;;18.90;99.90;;;;;;4927839;28;20382;-80
2022/10/03 13:01:19;;;;;;;0.50;0.50;;;19.30;99.90;;;;;;4957872;28;20280;-80
2022/10/03 13:03:54;;;;;;;0.40;0.40;;;19.60;99.90;;;;;;4950610;28;20136;-79
2022/10/03 13:06:40;;;;;;;0.40;0.40;;;19.50;99.90;;;;;;4956656;28;20051;-79
2022/10/03 13:09:23;;;;;;;0.40;0.40;;;19.50;99.90;;;;;;4940214;28;20218;-79
2022/10/03 13:11:55;;;;;;;0.40;0.40;;;19.30;99.90;;;;;;4957563;28;20059;-80
2022/10/03 13:14:29;;;;;;;0.50;0.50;;;18.90;99.90;;;;;;4967659;28;20080;-81
2022/10/03 13:17:12;;;;;;;0.50;0.50;;;19.00;99.90;;;;;;4969241;28;20398;-80
2022/10/03 13:20:13;;;;;;;0.40;0.40;;;18.90;99.90;;;;;;4962552;28;20068;-79
2022/10/03 13:23:10;;;;;;;0.50;0.50;;;18.70;99.90;;;;;;4956259;28;20460;-80
2022/10/03 13:26:09;;;;;;;0.50;0.50;;;18.80;99.90;;;;;;4962695;28;20441;-80
2022/10/03 13:28:47;;;;;;;0.40;0.40;;;19.20;99.90;;;;;;4959882;28;20103;-79
2022/10/03 13:31:24;;;;;;;0.50;0.50;;;19.20;99.90;;;;;;4954972;28;20863;-79
2022/10/03 13:33:54;;;;;;;0.40;0.40;;;19.30;99.90;;;;;;4960115;28;20120;-79
2022/10/03 13:36:46;;;;;;;0.40;0.40;;;19.40;99.90;;;;;;4957783;28;20041;-80
2022/10/03 13:39:20;;;;;;;0.40;0.40;;;19.30;99.90;;;;;;4960042;28;20045;-80
2022/10/03 13:42:01;;;;;;;0.40;0.40;;;19.40;99.90;;;;;;4965673;28;20060;-79
2022/10/03 13:44:32;;;;;;;0.40;0.40;;;19.50;99.90;;;;;;4956181;28;20045;-80
2022/10/03 13:47:11;;;;;;;0.40;0.40;;;19.40;99.90;;;;;;4963478;28;20041;-81
2022/10/03 13:49:55;;;;;;;0.40;0.40;;;19.30;99.90;;;;;;4956566;28;20494;-79
2022/10/03 13:52:22;;;;;;;;;;;19.30;99.90;;;;;;4958153;28;20822;-80
2022/10/03 13:55:18;;;;;;;0.40;0.40;;;19.30;99.90;;;;;;4962342;28;20333;-80
2022/10/03 13:57:55;;;;;;;0.40;0.40;;;19.40;99.90;;;;;;4938293;28;20434;-80
2022/10/03 14:00:25;;;;;;;0.50;0.50;;;19.40;99.90;;;;;;4959180;28;20032;-79
2022/10/03 14:03:03;;;;;;;0.40;0.40;;;19.50;99.90;;;;;;4962883;28;21954;-79
2022/10/03 14:05:34;;;;;;;0.50;0.50;;;19.50;99.90;;;;;;4963239;28;20611;-79
2022/10/03 14:08:09;;;;;;;0.50;0.50;;;19.60;99.90;;;;;;4962960;28;20854;-80
2022/10/03 14:11:09;;;;;;;0.40;0.40;;;19.80;99.90;;;;;;4961393;28;20056;-80
2022/10/03 14:13:51;;;;;;;0.40;0.40;;;19.90;99.90;;;;;;4967544;28;20076;-78
2022/10/03 14:16:39;;;;;;;0.40;0.40;;;19.60;99.90;;;;;;4965983;28;20044;-79
2022/10/03 14:19:26;;;;;;;0.40;0.40;;;19.60;99.90;;;;;;4963006;28;20564;-79
2022/10/03 14:22:07;;;;;;;0.50;0.50;;;19.50;99.90;;;;;;4963109;28;20249;-79
2022/10/03 14:24:56;;;;;;;0.47;0.47;;;19.50;99.90;;;;;;4969390;28;20115;-79
2022/10/03 14:27:54;;;;;;;0.43;0.43;;;19.40;99.90;;;;;;4957458;28;20100;-79
2022/10/03 14:30:33;;;;;;;0.40;0.40;;;19.30;99.90;;;;;;4948410;28;20037;-80
2022/10/03 14:33:16;;;;;;;0.40;0.40;;;19.40;99.90;;;;;;4968703;28;20512;-78
2022/10/03 14:36:29;;;;;;;0.40;0.40;;;19.40;99.90;;;;;;4968427;28;20044;-79
2022/10/03 14:39:10;;;;;;;0.40;0.40;;;19.40;99.90;;;;;;4971339;28;20045;-79
2022/10/03 14:42:06;;;;;;;0.40;0.40;;;19.30;99.90;;;;;;4962756;28;20118;-79
2022/10/03 14:44:44;;;;;;;0.40;0.40;;;19.40;99.90;;;;;;4945064;28;20113;-79
2022/10/03 14:47:15;;;;;;;0.40;0.40;;;19.20;99.90;;;;;;4966185;28;20053;-80
2022/10/03 14:49:53;;;;;;;0.40;0.40;;;19.20;99.90;;;;;;4964302;28;20051;-80
2022/10/03 14:52:36;;;;;;;0.40;0.40;;;19.10;99.90;;;;;;4963435;28;20537;-80